TimeEDT,TemperatureF,Dew PointF,Humidity,Sea Level PressureIn,VisibilityMPH,Wind Direction,Wind SpeedMPH,Gust SpeedMPH,PrecipitationIn,Events,Conditions,WindDirDegrees,DateUTC
12:52 AM,42.1,37.9,85,30.33,10.0,Calm,Calm,-,N/A,,Clear,0,2013-09-18 04:52:00
1:52 AM,39.0,36.0,89,30.33,10.0,Calm,Calm,-,N/A,,Clear,0,2013-09-18 05:52:00
2:52 AM,39.0,36.0,89,30.32,10.0,Calm,Calm,-,N/A,,Clear,0,2013-09-18 06:52:00
3:52 AM,39.9,36.0,86,30.31,10.0,Calm,Calm,-,N/A,,Clear,0,2013-09-18 07:52:00
4:52 AM,39.0,35.1,86,30.30,10.0,Calm,Calm,-,N/A,,Clear,0,2013-09-18 08:52:00
5:52 AM,39.0,36.0,89,30.31,10.0,Calm,Calm,-,N/A,,Clear,0,2013-09-18 09:52:00
6:52 AM,39.9,37.0,89,30.32,10.0,Calm,Calm,-,N/A,,Clear,0,2013-09-18 10:52:00
7:52 AM,48.0,42.1,80,30.32,10.0,Calm,Calm,-,N/A,,Clear,0,2013-09-18 11:52:00
8:52 AM,55.9,43.0,62,30.32,10.0,WNW,6.9,-,N/A,,Clear,290,2013-09-18 12:52:00
9:52 AM,59.0,43.0,55,30.31,10.0,WNW,5.8,-,N/A,,Clear,300,2013-09-18 13:52:00
10:52 AM,66.0,39.0,37,30.29,10.0,West,9.2,-,N/A,,Clear,260,2013-09-18 14:52:00
11:52 AM,68.0,39.0,35,30.27,10.0,Variable,5.8,-,N/A,,Clear,0,2013-09-18 15:52:00
12:52 PM,71.1,39.9,32,30.25,10.0,Variable,4.6,-,N/A,,Clear,0,2013-09-18 16:52:00
1:52 PM,70.0,39.9,33,30.23,10.0,SSW,5.8,-,N/A,,Clear,210,2013-09-18 17:52:00
2:52 PM,71.1,41.0,34,30.20,10.0,SW,5.8,-,N/A,,Clear,230,2013-09-18 18:52:00
3:52 PM,71.1,42.1,35,30.18,10.0,SW,6.9,-,N/A,,Clear,230,2013-09-18 19:52:00
4:52 PM,71.1,43.0,36,30.18,10.0,SW,10.4,-,N/A,,Clear,220,2013-09-18 20:52:00
5:52 PM,69.1,44.1,40,30.18,10.0,SW,6.9,-,N/A,,Clear,230,2013-09-18 21:52:00
6:52 PM,63.0,46.0,54,30.17,10.0,SSW,4.6,-,N/A,,Clear,210,2013-09-18 22:52:00
7:52 PM,59.0,46.9,64,30.18,10.0,SSW,4.6,-,N/A,,Clear,210,2013-09-18 23:52:00
8:52 PM,57.0,46.0,67,30.18,10.0,SW,5.8,-,N/A,,Clear,220,2013-09-19 00:52:00
9:52 PM,55.0,46.0,72,30.18,10.0,SSW,4.6,-,N/A,,Clear,210,2013-09-19 01:52:00
10:52 PM,53.1,45.0,74,30.17,10.0,SW,4.6,-,N/A,,Clear,230,2013-09-19 02:52:00
11:52 PM,52.0,45.0,77,30.16,10.0,Calm,Calm,-,N/A,,Clear,0,2013-09-19 03:52:00